createdAt,value
2022-08-20T00:02:11.168Z,0.70
2022-08-20T00:04:41.209Z,0.83
2022-08-20T00:07:09.333Z,0.90
2022-08-20T00:09:37.463Z,0.80
2022-08-20T00:12:06.591Z,0.70
2022-08-20T00:14:35.915Z,0.70
2022-08-20T00:17:04.956Z,1.30
2022-08-20T00:19:33.115Z,0.83
2022-08-20T00:22:02.868Z,0.70
2022-08-20T00:24:31.332Z,0.70
2022-08-20T00:26:59.490Z,0.80
2022-08-20T00:29:27.694Z,0.70
2022-08-20T00:31:55.852Z,0.73
2022-08-20T00:34:24.702Z,0.70
2022-08-20T00:36:52.866Z,0.90
2022-08-20T00:39:22.356Z,0.70
2022-08-20T00:41:51.973Z,1.00
2022-08-20T00:44:22.951Z,0.87
2022-08-20T00:46:52.179Z,0.80
2022-08-20T00:49:24.721Z,0.70
2022-08-20T00:51:58.244Z,0.87
2022-08-20T00:54:31.333Z,0.90
2022-08-20T00:57:03.445Z,0.87
2022-08-20T00:59:35.574Z,0.90
2022-08-20T01:02:05.856Z,0.80
2022-08-20T01:04:36.403Z,0.90
2022-08-20T01:07:06.467Z,0.83
2022-08-20T01:09:57.794Z,1.00
2022-08-20T01:12:25.130Z,1.10
2022-08-20T01:14:53.923Z,1.30
2022-08-20T01:17:25.285Z,1.00
2022-08-20T01:19:56.794Z,0.90
2022-08-20T01:22:47.337Z,0.97
2022-08-20T01:25:25.045Z,0.90
2022-08-20T01:27:56.015Z,1.00
2022-08-20T01:30:26.945Z,0.90
2022-08-20T01:32:55.120Z,0.90
2022-08-20T01:35:24.850Z,0.80
2022-08-20T01:37:54.300Z,1.00
2022-08-20T01:40:45.809Z,0.83
2022-08-20T01:43:17.208Z,0.87
2022-08-20T01:45:45.398Z,0.90
2022-08-20T01:48:17.134Z,0.80
2022-08-20T01:50:55.426Z,0.90
2022-08-20T01:53:29.692Z,0.90
2022-08-20T01:55:57.797Z,1.00
2022-08-20T01:58:29.634Z,0.80
2022-08-20T02:00:58.013Z,1.00
2022-08-20T02:03:26.301Z,0.80
2022-08-20T02:05:54.530Z,1.03
2022-08-20T02:08:23.014Z,1.10
2022-08-20T02:10:51.107Z,0.80
2022-08-20T02:13:19.823Z,1.20
2022-08-20T02:15:49.330Z,0.80
2022-08-20T02:18:17.932Z,1.00
2022-08-20T02:20:47.046Z,1.00
2022-08-20T02:23:16.504Z,0.90
2022-08-20T02:25:47.472Z,1.10
2022-08-20T02:28:19.724Z,1.20
2022-08-20T02:30:53.147Z,0.90
2022-08-20T02:33:24.269Z,1.10
2022-08-20T02:35:55.440Z,1.40
2022-08-20T02:38:23.583Z,0.90
2022-08-20T02:40:51.903Z,1.00
2022-08-20T02:43:20.356Z,1.00
2022-08-20T02:45:49.969Z,0.93
2022-08-20T02:48:22.924Z,1.00
2022-08-20T02:50:53.925Z,1.20
2022-08-20T02:53:22.567Z,1.00
2022-08-20T02:55:51.028Z,0.97
2022-08-20T02:58:20.302Z,1.00
2022-08-20T03:00:50.708Z,1.07
2022-08-20T03:03:22.532Z,1.10
2022-08-20T03:05:52.802Z,1.00
2022-08-20T03:08:21.722Z,1.10
2022-08-20T03:10:51.342Z,1.13
2022-08-20T03:13:20.907Z,1.00
2022-08-20T03:15:58.446Z,1.00
2022-08-20T03:18:29.159Z,1.00
2022-08-20T03:20:57.408Z,1.10
2022-08-20T03:23:25.626Z,1.20
2022-08-20T03:25:53.802Z,1.17
2022-08-20T03:28:21.964Z,1.10
2022-08-20T03:30:53.187Z,1.20
2022-08-20T03:33:21.799Z,1.30
2022-08-20T03:35:50.348Z,1.10
2022-08-20T03:38:21.477Z,1.30
2022-08-20T03:41:01.057Z,1.70
2022-08-20T03:43:29.623Z,1.50
2022-08-20T03:45:59.214Z,1.30
2022-08-20T03:48:27.433Z,1.27
2022-08-20T03:50:55.800Z,1.17
2022-08-20T03:53:25.049Z,1.23
2022-08-20T03:55:59.302Z,1.30
2022-08-20T03:58:35.001Z,1.30
2022-08-20T04:01:07.902Z,1.30
2022-08-20T04:03:58.665Z,1.40
2022-08-20T04:06:27.745Z,1.20
2022-08-20T04:08:56.024Z,1.30
2022-08-20T04:11:24.867Z,1.30
2022-08-20T04:13:53.020Z,1.30
2022-08-20T04:16:24.020Z,1.27
2022-08-20T04:19:01.589Z,1.47
2022-08-20T04:21:32.629Z,1.30
2022-08-20T04:24:02.301Z,1.40
2022-08-20T04:26:30.987Z,1.40
2022-08-20T04:28:59.191Z,1.20
2022-08-20T04:31:33.708Z,1.30
2022-08-20T04:34:02.977Z,1.57
2022-08-20T04:36:31.440Z,1.70
2022-08-20T04:38:59.710Z,1.50
2022-08-20T04:41:28.033Z,1.20
2022-08-20T04:43:58.104Z,1.40
2022-08-20T04:46:29.122Z,1.30
2022-08-20T04:48:58.054Z,1.40
2022-08-20T04:51:26.868Z,1.50
2022-08-20T04:53:56.410Z,1.60
2022-08-20T04:56:28.154Z,1.40
2022-08-20T04:58:58.657Z,1.90
2022-08-20T05:01:29.285Z,1.80
2022-08-20T05:03:59.166Z,1.30
2022-08-20T05:06:30.920Z,1.80
2022-08-20T05:09:00.538Z,1.40
2022-08-20T05:11:34.735Z,1.40
2022-08-20T05:14:05.755Z,1.63
2022-08-20T05:16:38.829Z,1.30
2022-08-20T05:19:08.780Z,1.70
2022-08-20T05:21:37.327Z,1.60
2022-08-20T05:24:06.222Z,2.30
2022-08-20T05:26:34.480Z,1.60
2022-08-20T05:29:05.318Z,1.83
2022-08-20T05:31:35.784Z,1.60
2022-08-20T05:34:09.568Z,1.73
2022-08-20T05:36:40.146Z,1.50
2022-08-20T05:39:08.835Z,1.60
2022-08-20T05:41:37.929Z,1.40
2022-08-20T05:44:09.898Z,1.80
2022-08-20T05:46:41.166Z,1.80
2022-08-20T05:49:09.919Z,1.40
2022-08-20T05:51:38.063Z,1.80
2022-08-20T05:54:07.020Z,1.50
2022-08-20T05:56:36.111Z,1.60
2022-08-20T05:59:06.188Z,2.10
2022-08-20T06:01:35.729Z,1.80
2022-08-20T06:04:23.925Z,1.70
2022-08-20T06:06:53.061Z,1.50
2022-08-20T06:09:31.320Z,2.30
2022-08-20T06:12:01.866Z,1.90
2022-08-20T06:14:30.051Z,1.30
2022-08-20T06:17:04.812Z,1.50
2022-08-20T06:19:35.502Z,1.77
2022-08-20T06:22:19.210Z,1.60
2022-08-20T06:24:52.809Z,1.50
2022-08-20T06:27:21.753Z,1.53
2022-08-20T06:29:50.941Z,2.27
2022-08-20T06:32:19.864Z,1.57
2022-08-20T06:34:58.510Z,1.60
2022-08-20T06:37:31.328Z,1.77
2022-08-20T06:40:03.589Z,1.83
2022-08-20T06:42:31.878Z,1.83
2022-08-20T06:45:05.629Z,1.97
2022-08-20T06:47:34.887Z,1.77
2022-08-20T06:50:04.795Z,1.33
2022-08-20T06:52:48.078Z,1.70
2022-08-20T06:55:22.338Z,1.60
2022-08-20T06:57:59.393Z,2.50
2022-08-20T07:00:29.362Z,1.50
2022-08-20T07:03:00.487Z,2.40
2022-08-20T07:05:31.334Z,1.77
2022-08-20T07:07:59.429Z,1.80
2022-08-20T07:10:28.491Z,1.90
2022-08-20T07:12:56.731Z,1.73
2022-08-20T07:15:27.016Z,1.93
2022-08-20T07:18:00.926Z,2.00
2022-08-20T07:20:32.814Z,1.63
2022-08-20T07:23:01.741Z,1.63
2022-08-20T07:25:31.293Z,1.70
2022-08-20T07:28:02.386Z,1.53
2022-08-20T07:30:56.181Z,2.00
2022-08-20T07:33:26.329Z,1.77
2022-08-20T07:35:58.308Z,1.80
2022-08-20T07:38:29.274Z,1.83
2022-08-20T07:41:00.409Z,1.80
2022-08-20T07:43:28.653Z,2.90
2022-08-20T07:46:00.819Z,1.77
2022-08-20T07:48:31.990Z,1.93
2022-08-20T07:51:04.543Z,2.17
2022-08-20T07:53:35.643Z,2.33
2022-08-20T07:56:08.208Z,1.70
2022-08-20T07:58:38.329Z,1.70
2022-08-20T08:01:07.664Z,1.73
2022-08-20T08:03:48.784Z,2.00
2022-08-20T08:06:28.495Z,1.87
2022-08-20T08:09:01.118Z,2.10
2022-08-20T08:11:29.831Z,1.77
2022-08-20T08:13:58.157Z,1.80
2022-08-20T08:16:26.360Z,1.57
2022-08-20T08:18:58.461Z,1.60
2022-08-20T08:21:30.004Z,1.63
2022-08-20T08:23:58.314Z,1.87
2022-08-20T08:26:28.848Z,2.10
2022-08-20T08:28:58.203Z,1.70
2022-08-20T08:31:26.738Z,2.10
2022-08-20T08:33:56.463Z,1.60
2022-08-20T08:36:27.438Z,1.73
2022-08-20T08:38:56.938Z,1.80
2022-08-20T08:41:31.293Z,1.60
2022-08-20T08:44:06.053Z,1.70
2022-08-20T08:46:40.299Z,1.70
2022-08-20T08:49:12.726Z,1.60
2022-08-20T08:51:47.213Z,2.07
2022-08-20T08:54:21.389Z,1.43
2022-08-20T08:56:50.801Z,1.57
2022-08-20T08:59:20.453Z,1.60
2022-08-20T09:01:55.198Z,1.70
2022-08-20T09:04:30.417Z,1.73
2022-08-20T09:06:59.470Z,1.70
2022-08-20T09:09:32.506Z,1.50
2022-08-20T09:12:05.914Z,1.60
2022-08-20T09:14:34.424Z,1.70
2022-08-20T09:17:03.021Z,1.63
2022-08-20T09:19:32.129Z,1.47
2022-08-20T09:22:00.269Z,1.23
2022-08-20T09:24:29.785Z,1.40
2022-08-20T09:26:57.909Z,1.13
2022-08-20T09:29:26.076Z,1.30
2022-08-20T09:32:05.560Z,1.40
2022-08-20T09:34:37.383Z,1.67
2022-08-20T09:37:05.738Z,1.10
2022-08-20T09:39:35.762Z,1.30
2022-08-20T09:42:11.155Z,1.00
2022-08-20T09:44:40.007Z,1.20
2022-08-20T09:47:08.202Z,1.27
2022-08-20T09:49:37.420Z,1.20
2022-08-20T09:52:08.316Z,1.20
2022-08-20T09:54:38.473Z,1.20
2022-08-20T09:57:10.150Z,0.93
2022-08-20T09:59:38.654Z,1.20
2022-08-20T10:02:06.980Z,1.00
2022-08-20T10:04:35.113Z,1.20
2022-08-20T10:07:03.209Z,1.37
2022-08-20T10:09:31.415Z,1.10
2022-08-20T10:12:00.879Z,1.23
2022-08-20T10:14:30.055Z,1.17
2022-08-20T10:17:00.135Z,1.00
2022-08-20T10:19:30.168Z,1.30
2022-08-20T10:21:59.788Z,1.30
2022-08-20T10:24:28.540Z,0.90
2022-08-20T10:26:58.605Z,0.80
2022-08-20T10:29:29.786Z,0.70
2022-08-20T10:31:58.489Z,0.60
2022-08-20T10:34:26.978Z,0.50
2022-08-20T10:36:55.168Z,0.60
2022-08-20T10:39:23.271Z,0.60
2022-08-20T10:41:51.454Z,0.90
2022-08-20T10:44:19.629Z,0.50
2022-08-20T10:46:49.111Z,0.57
2022-08-20T10:49:20.211Z,0.60
2022-08-20T10:51:49.071Z,0.60
2022-08-20T10:54:17.102Z,0.50
2022-08-20T10:56:45.162Z,0.50
2022-08-20T10:59:13.341Z,0.67
2022-08-20T11:01:41.581Z,0.60
2022-08-20T11:04:11.252Z,0.60
2022-08-20T11:06:39.441Z,0.57
2022-08-20T11:09:09.769Z,0.70
2022-08-20T11:11:38.041Z,0.60
2022-08-20T11:14:06.286Z,0.60
2022-08-20T11:16:34.386Z,0.70
2022-08-20T11:19:02.556Z,0.80
2022-08-20T11:21:32.121Z,0.70
2022-08-20T11:24:02.954Z,0.67
2022-08-20T11:26:31.365Z,0.63
2022-08-20T11:28:59.913Z,0.60
2022-08-20T11:31:28.039Z,0.60
2022-08-20T11:33:56.168Z,0.80
2022-08-20T11:36:26.329Z,0.60
2022-08-20T11:38:55.861Z,0.60
2022-08-20T11:41:24.229Z,0.60
2022-08-20T11:44:17.475Z,0.67
2022-08-20T11:46:40.463Z,0.60
2022-08-20T11:49:08.619Z,0.50
2022-08-20T11:51:49.245Z,0.60
2022-08-20T11:54:19.745Z,0.67
2022-08-20T11:56:49.527Z,0.63
2022-08-20T11:59:18.390Z,0.67
2022-08-20T12:02:02.692Z,0.70
2022-08-20T12:04:33.655Z,0.70
2022-08-20T12:07:11.061Z,0.60
2022-08-20T12:09:42.947Z,0.67
2022-08-20T12:12:20.541Z,0.60
2022-08-20T12:14:51.740Z,0.70
2022-08-20T12:17:23.811Z,0.60
2022-08-20T12:19:53.454Z,0.57
2022-08-20T12:22:25.157Z,0.60
2022-08-20T12:24:55.470Z,0.53
2022-08-20T12:27:26.471Z,0.60
2022-08-20T12:29:56.210Z,0.80
2022-08-20T12:32:26.960Z,0.50
2022-08-20T12:34:55.787Z,0.53
2022-08-20T12:37:26.007Z,0.60
2022-08-20T12:39:57.698Z,0.70
2022-08-20T12:42:27.922Z,0.70
2022-08-20T12:44:56.323Z,0.60
2022-08-20T12:47:27.132Z,0.53
2022-08-20T12:49:57.365Z,1.20
2022-08-20T12:52:27.089Z,0.80
2022-08-20T12:54:57.383Z,0.70
2022-08-20T12:57:31.281Z,0.90
2022-08-20T13:00:01.231Z,0.70
2022-08-20T13:02:32.137Z,0.80
2022-08-20T13:05:04.862Z,0.70
2022-08-20T13:07:33.693Z,0.70
2022-08-20T13:10:05.179Z,0.77
2022-08-20T13:12:33.497Z,0.90
2022-08-20T13:15:01.645Z,0.70
2022-08-20T13:17:38.891Z,1.10
2022-08-20T13:20:10.856Z,0.90
2022-08-20T13:22:39.075Z,0.80
2022-08-20T13:25:10.488Z,0.70
2022-08-20T13:27:38.886Z,0.60
2022-08-20T13:30:09.571Z,0.70
2022-08-20T13:32:38.658Z,0.70
2022-08-20T13:35:07.386Z,0.70
2022-08-20T13:37:36.170Z,0.77
2022-08-20T13:40:06.422Z,0.70
2022-08-20T13:42:36.529Z,0.60
2022-08-20T13:45:06.230Z,0.80
2022-08-20T13:47:36.738Z,0.80
2022-08-20T13:50:09.770Z,0.80
2022-08-20T13:52:39.085Z,0.70
2022-08-20T13:55:09.505Z,0.80
2022-08-20T13:57:40.033Z,0.80
2022-08-20T14:00:13.203Z,0.80
2022-08-20T14:02:43.085Z,0.73
2022-08-20T14:05:12.084Z,0.80
2022-08-20T14:07:43.756Z,0.80
2022-08-20T14:10:15.037Z,0.80
2022-08-20T14:12:44.599Z,0.70
2022-08-20T14:15:13.357Z,0.80
2022-08-20T14:17:43.840Z,0.70
2022-08-20T14:20:15.178Z,0.70
2022-08-20T14:22:44.021Z,0.70
2022-08-20T14:25:14.581Z,0.70
2022-08-20T14:27:44.231Z,0.70
2022-08-20T14:30:16.568Z,0.70
2022-08-20T14:32:45.095Z,0.70
2022-08-20T14:35:13.561Z,0.87
2022-08-20T14:37:43.755Z,0.80
2022-08-20T14:40:14.097Z,0.70
2022-08-20T14:42:44.127Z,0.70
2022-08-20T14:45:16.636Z,0.70
2022-08-20T14:47:47.556Z,0.50
2022-08-20T14:50:20.626Z,0.60
2022-08-20T14:52:48.772Z,0.50
2022-08-20T14:55:18.696Z,0.50
2022-08-20T14:57:48.816Z,0.83
2022-08-20T15:00:20.126Z,0.60
2022-08-20T15:02:48.758Z,0.53
2022-08-20T15:05:17.766Z,0.50
2022-08-20T15:07:54.052Z,0.70
2022-08-20T15:10:24.689Z,0.60
2022-08-20T15:12:54.556Z,0.50
2022-08-20T15:15:23.480Z,0.60
2022-08-20T15:17:54.900Z,0.60
2022-08-20T15:20:25.889Z,0.50
2022-08-20T15:22:54.901Z,0.70
2022-08-20T15:25:26.011Z,0.53
2022-08-20T15:28:00.808Z,0.60
2022-08-20T15:30:31.116Z,0.60
2022-08-20T15:33:00.011Z,0.43
2022-08-20T15:35:29.658Z,0.50
2022-08-20T15:37:59.719Z,0.40
2022-08-20T15:40:31.699Z,0.50
2022-08-20T15:43:03.524Z,0.80
2022-08-20T15:45:32.497Z,0.50
2022-08-20T15:48:08.188Z,0.87
2022-08-20T15:50:56.976Z,0.60
2022-08-20T15:53:31.524Z,0.70
2022-08-20T15:56:10.348Z,0.90
2022-08-20T15:58:52.556Z,0.70
2022-08-20T16:01:30.095Z,0.50
2022-08-20T16:04:25.070Z,0.60
2022-08-20T16:06:58.353Z,0.70
2022-08-20T16:09:51.235Z,0.70
2022-08-20T16:12:31.878Z,0.70
2022-08-20T16:15:03.759Z,0.70
2022-08-20T16:17:36.007Z,0.90
2022-08-20T16:20:09.497Z,0.80
2022-08-20T16:22:43.130Z,1.00
2022-08-20T16:25:11.817Z,0.90
2022-08-20T16:27:50.494Z,0.90
2022-08-20T16:30:25.788Z,0.80
2022-08-20T16:33:00.062Z,0.80
2022-08-20T16:35:33.321Z,0.70
2022-08-20T16:38:08.497Z,0.70
2022-08-20T16:40:44.441Z,1.00
2022-08-20T16:43:24.320Z,0.90
2022-08-20T16:45:59.949Z,0.80
2022-08-20T16:48:36.466Z,0.87
2022-08-20T16:51:09.943Z,0.90
2022-08-20T16:53:38.012Z,0.97
2022-08-20T16:56:06.553Z,0.90
2022-08-20T16:58:34.982Z,0.80
2022-08-20T17:01:14.281Z,0.83
2022-08-20T17:03:51.509Z,0.90
2022-08-20T17:06:28.362Z,0.90
2022-08-20T17:08:57.011Z,0.90
2022-08-20T17:11:29.195Z,0.90
2022-08-20T17:14:11.362Z,0.83
2022-08-20T17:16:44.671Z,0.80
2022-08-20T17:19:18.339Z,0.70
2022-08-20T17:21:49.827Z,0.70
2022-08-20T17:24:25.046Z,0.80
2022-08-20T17:27:00.021Z,0.70
2022-08-20T17:29:29.885Z,0.70
2022-08-20T17:32:00.754Z,1.07
2022-08-20T17:34:32.007Z,0.80
2022-08-20T17:37:03.937Z,1.00
2022-08-20T17:39:32.302Z,1.30
2022-08-20T17:42:08.124Z,1.03
2022-08-20T17:44:40.368Z,0.80
2022-08-20T17:47:16.220Z,0.90
2022-08-20T17:50:01.867Z,0.90
2022-08-20T17:52:37.643Z,0.90
2022-08-20T17:55:07.263Z,1.57
2022-08-20T17:57:39.736Z,0.80
2022-08-20T18:00:14.181Z,0.90
2022-08-20T18:02:44.786Z,1.03
2022-08-20T18:05:19.122Z,0.70
2022-08-20T18:08:04.383Z,0.87
2022-08-20T18:10:38.810Z,0.77
2022-08-20T18:13:16.044Z,0.80
2022-08-20T18:15:50.618Z,0.90
2022-08-20T18:18:29.454Z,1.00
2022-08-20T18:21:15.499Z,1.03
2022-08-20T18:23:48.227Z,0.80
2022-08-20T18:26:22.909Z,1.63
2022-08-20T18:28:55.116Z,1.20
2022-08-20T18:31:29.559Z,0.97
2022-08-20T18:33:59.422Z,0.93
2022-08-20T18:36:30.516Z,1.00
2022-08-20T18:39:02.933Z,1.00
2022-08-20T18:41:33.753Z,1.20
2022-08-20T18:44:10.852Z,1.10
2022-08-20T18:46:51.202Z,1.00
2022-08-20T18:49:30.219Z,1.20
2022-08-20T18:51:59.609Z,1.00
2022-08-20T18:54:31.268Z,1.00
2022-08-20T18:57:08.494Z,1.00
2022-08-20T18:59:44.249Z,1.10
2022-08-20T19:02:23.686Z,1.20
2022-08-20T19:05:02.399Z,1.20
2022-08-20T19:07:48.445Z,1.30
2022-08-20T19:10:37.300Z,1.03
2022-08-20T19:13:29.001Z,1.17
2022-08-20T19:16:04.213Z,1.27
2022-08-20T19:18:38.812Z,1.20
2022-08-20T19:21:15.606Z,1.33
2022-08-20T19:23:51.783Z,1.13
2022-08-20T19:26:25.714Z,1.30
2022-08-20T19:28:58.038Z,1.40
2022-08-20T19:31:29.314Z,1.70
2022-08-20T19:34:19.635Z,1.10
2022-08-20T19:36:55.516Z,1.20
2022-08-20T19:39:25.654Z,1.03
2022-08-20T19:41:58.596Z,1.10
2022-08-20T19:44:33.974Z,1.30
2022-08-20T19:47:03.364Z,1.50
2022-08-20T19:49:42.710Z,1.30
2022-08-20T19:52:26.949Z,1.23
2022-08-20T19:55:01.447Z,1.10
2022-08-20T19:57:32.813Z,1.30
2022-08-20T20:00:04.069Z,1.23
2022-08-20T20:02:34.311Z,1.30
2022-08-20T20:05:06.557Z,1.10
2022-08-20T20:07:41.654Z,1.13
2022-08-20T20:10:13.150Z,1.10
2022-08-20T20:12:41.459Z,1.10
2022-08-20T20:15:10.046Z,1.30
2022-08-20T20:17:38.305Z,1.13
2022-08-20T20:20:21.279Z,1.10
2022-08-20T20:22:56.698Z,1.20
2022-08-20T20:25:41.136Z,1.00
2022-08-20T20:28:14.225Z,1.20
2022-08-20T20:30:44.786Z,1.30
2022-08-20T20:33:16.737Z,1.27
2022-08-20T20:35:46.548Z,1.47
2022-08-20T20:38:26.315Z,1.40
2022-08-20T20:40:58.131Z,1.30
2022-08-20T20:43:29.232Z,1.00
2022-08-20T20:46:09.376Z,0.93
2022-08-20T20:48:46.006Z,1.23
2022-08-20T20:51:16.472Z,1.27
2022-08-20T20:53:54.751Z,1.30
2022-08-20T20:56:30.379Z,1.10
2022-08-20T20:59:03.999Z,1.20
2022-08-20T21:01:49.087Z,1.20
2022-08-20T21:04:19.908Z,1.20
2022-08-20T21:06:49.260Z,1.30
2022-08-20T21:09:20.380Z,1.20
2022-08-20T21:11:49.246Z,1.27
2022-08-20T21:14:18.612Z,1.30
2022-08-20T21:16:47.260Z,1.20
2022-08-20T21:19:17.053Z,1.30
2022-08-20T21:21:45.241Z,1.30
2022-08-20T21:24:13.657Z,1.10
2022-08-20T21:26:43.446Z,1.30
2022-08-20T21:29:14.250Z,1.13
2022-08-20T21:31:45.112Z,1.10
2022-08-20T21:34:16.446Z,1.40
2022-08-20T21:36:45.379Z,1.30
2022-08-20T21:39:14.000Z,1.40
2022-08-20T21:41:45.179Z,1.27
2022-08-20T21:44:21.188Z,1.80
2022-08-20T21:46:49.790Z,1.10
2022-08-20T21:49:19.559Z,1.30
2022-08-20T21:51:47.955Z,1.30
2022-08-20T21:54:16.594Z,1.40
2022-08-20T21:56:51.477Z,1.40
2022-08-20T21:59:21.718Z,1.57
2022-08-20T22:01:50.110Z,1.43
2022-08-20T22:04:18.306Z,2.00
2022-08-20T22:06:46.957Z,1.50
2022-08-20T22:09:15.580Z,1.40
2022-08-20T22:11:45.169Z,1.30
2022-08-20T22:14:16.400Z,1.30
2022-08-20T22:16:45.960Z,1.33
2022-08-20T22:19:16.119Z,1.40
2022-08-20T22:21:45.523Z,1.87
2022-08-20T22:24:15.082Z,1.50
2022-08-20T22:26:45.736Z,1.53
2022-08-20T22:29:14.042Z,1.50
2022-08-20T22:31:44.159Z,1.40
2022-08-20T22:34:13.381Z,1.10
2022-08-20T22:36:41.759Z,1.20
2022-08-20T22:39:10.294Z,1.10
2022-08-20T22:41:38.713Z,1.33
2022-08-20T22:44:08.400Z,1.37
2022-08-20T22:46:44.995Z,1.13
2022-08-20T22:49:19.012Z,1.30
2022-08-20T22:51:47.501Z,1.13
2022-08-20T22:54:21.697Z,1.10
2022-08-20T22:56:51.049Z,1.30
2022-08-20T22:59:21.344Z,1.13
2022-08-20T23:01:51.690Z,1.33
2022-08-20T23:04:25.572Z,1.37
2022-08-20T23:06:54.958Z,1.30
2022-08-20T23:09:23.516Z,1.43
2022-08-20T23:11:53.746Z,1.30
2022-08-20T23:14:23.922Z,1.53
2022-08-20T23:17:01.319Z,1.70
2022-08-20T23:19:29.505Z,1.80
2022-08-20T23:21:57.729Z,1.50
2022-08-20T23:24:26.603Z,1.50
2022-08-20T23:26:54.725Z,1.40
2022-08-20T23:29:26.067Z,1.60
2022-08-20T23:31:55.303Z,1.40
2022-08-20T23:34:23.443Z,1.40
2022-08-20T23:36:52.527Z,1.37
2022-08-20T23:39:21.003Z,1.40
2022-08-20T23:41:49.097Z,1.50
2022-08-20T23:44:25.136Z,1.30
2022-08-20T23:46:57.716Z,1.50
2022-08-20T23:49:26.444Z,1.60
2022-08-20T23:51:54.623Z,1.57
2022-08-20T23:54:22.831Z,1.50
2022-08-20T23:56:50.989Z,1.37
2022-08-20T23:59:19.651Z,2.00
